createdAt,value
2018-11-26T00:00:24.680Z,11.40
2018-11-26T00:01:24.663Z,11.00
2018-11-26T00:02:24.660Z,11.60
2018-11-26T00:03:24.642Z,11.40
2018-11-26T00:04:24.632Z,11.40
2018-11-26T00:05:24.623Z,10.80
2018-11-26T00:06:24.612Z,11.60
2018-11-26T00:07:24.602Z,10.80
2018-11-26T00:08:24.588Z,11.00
2018-11-26T00:09:24.579Z,11.40
2018-11-26T00:10:24.569Z,11.30
2018-11-26T00:11:24.565Z,11.60
2018-11-26T00:12:24.547Z,10.70
2018-11-26T00:13:24.538Z,11.40
2018-11-26T00:14:24.525Z,10.90
2018-11-26T00:15:24.519Z,11.10
2018-11-26T00:16:24.504Z,11.00
2018-11-26T00:17:24.494Z,10.50
2018-11-26T00:18:24.483Z,11.40
2018-11-26T00:19:24.473Z,11.20
2018-11-26T00:20:24.484Z,11.50
2018-11-26T00:21:24.449Z,11.90
2018-11-26T00:22:24.440Z,11.60
2018-11-26T00:23:24.428Z,11.10
2018-11-26T00:24:24.418Z,10.50
2018-11-26T00:25:24.406Z,10.90
2018-11-26T00:26:24.401Z,11.30
2018-11-26T00:27:24.386Z,12.00
2018-11-26T00:28:24.375Z,11.00
2018-11-26T00:29:24.366Z,11.30
2018-11-26T00:30:24.358Z,10.90
2018-11-26T00:39:25.641Z,11.70
2018-11-26T00:40:24.572Z,10.60
2018-11-26T00:41:24.559Z,11.30
2018-11-26T00:42:24.544Z,10.40
2018-11-26T00:43:24.536Z,10.80
2018-11-26T00:44:24.533Z,10.00
2018-11-26T00:45:24.513Z,10.60
2018-11-26T00:46:24.503Z,11.10
2018-11-26T00:47:24.493Z,11.10
2018-11-26T00:48:24.481Z,10.50
2018-11-26T00:49:24.470Z,11.00
2018-11-26T00:50:24.469Z,10.60
2018-11-26T00:51:24.449Z,10.80
2018-11-26T00:52:24.438Z,10.90
2018-11-26T00:53:24.427Z,11.20
2018-11-26T00:54:24.418Z,10.20
2018-11-26T00:55:24.417Z,10.30
2018-11-26T00:56:24.397Z,10.50
2018-11-26T00:57:24.389Z,10.90
2018-11-26T00:58:24.376Z,9.90
2018-11-26T00:59:24.364Z,10.60
2018-11-26T01:00:24.354Z,10.30
2018-11-26T01:01:24.343Z,10.60
2018-11-26T01:02:24.335Z,10.10
2018-11-26T01:03:24.322Z,10.40
2018-11-26T01:04:24.311Z,10.30
2018-11-26T01:05:24.301Z,11.00
2018-11-26T01:06:24.289Z,10.30
2018-11-26T01:07:24.278Z,10.70
2018-11-26T01:08:24.267Z,10.60
2018-11-26T01:09:24.256Z,10.50
2018-11-26T01:10:24.246Z,10.20
2018-11-26T01:11:24.237Z,10.60
2018-11-26T01:12:24.230Z,9.80
2018-11-26T01:13:24.216Z,10.80
2018-11-26T01:14:24.205Z,10.30
2018-11-26T01:15:24.193Z,10.60
2018-11-26T01:16:24.185Z,9.90
2018-11-26T01:17:24.170Z,10.20
2018-11-26T01:18:24.162Z,10.30
2018-11-26T01:19:24.154Z,11.00
2018-11-26T01:20:24.142Z,10.10
2018-11-26T01:21:24.129Z,10.90
2018-11-26T01:22:24.118Z,10.30
2018-11-26T01:23:24.106Z,9.80
2018-11-26T01:24:24.099Z,9.70
2018-11-26T01:25:24.089Z,9.90
2018-11-26T01:26:24.078Z,10.70
2018-11-26T01:27:24.065Z,10.10
2018-11-26T01:28:24.054Z,10.80
2018-11-26T01:29:24.042Z,10.70
2018-11-26T01:30:24.034Z,10.30
2018-11-26T01:31:24.029Z,10.30
2018-11-26T01:32:24.011Z,10.00
2018-11-26T01:33:23.998Z,10.50
2018-11-26T01:34:23.989Z,10.50
2018-11-26T01:35:23.981Z,9.90
2018-11-26T01:36:23.968Z,10.10
2018-11-26T01:37:23.956Z,9.90
2018-11-26T01:38:23.946Z,10.20
2018-11-26T01:39:23.934Z,10.40
2018-11-26T01:40:23.925Z,10.40
2018-11-26T01:41:23.914Z,10.40
2018-11-26T01:42:23.902Z,9.60
2018-11-26T01:43:23.893Z,10.40
2018-11-26T01:44:23.881Z,9.90
2018-11-26T01:45:23.871Z,9.60
2018-11-26T01:46:23.861Z,10.20
2018-11-26T01:47:23.850Z,10.00
2018-11-26T01:48:23.839Z,10.10
2018-11-26T01:49:23.828Z,9.70
2018-11-26T01:50:23.817Z,9.60
2018-11-26T01:51:23.806Z,9.80
2018-11-26T01:52:23.796Z,10.00
2018-11-26T01:53:23.787Z,9.70
2018-11-26T01:54:23.778Z,10.40
2018-11-26T01:55:23.764Z,10.20
2018-11-26T01:56:23.754Z,9.60
2018-11-26T01:57:23.743Z,9.80
2018-11-26T01:58:23.735Z,10.20
2018-11-26T01:59:23.721Z,10.30
2018-11-26T02:00:23.997Z,10.00
2018-11-26T02:01:23.700Z,10.00
2018-11-26T02:02:23.692Z,9.70
2018-11-26T02:03:23.679Z,10.20
2018-11-26T02:04:23.669Z,9.20
2018-11-26T02:05:23.657Z,9.80
2018-11-26T02:06:23.647Z,10.30
2018-11-26T02:07:23.636Z,10.30
2018-11-26T02:08:23.625Z,9.60
2018-11-26T02:09:23.617Z,9.70
2018-11-26T02:10:23.641Z,9.70
2018-11-26T02:11:23.593Z,10.30
2018-11-26T02:12:23.587Z,10.20
2018-11-26T02:13:23.574Z,9.30
2018-11-26T02:14:23.560Z,10.00
2018-11-26T02:15:23.552Z,10.20
2018-11-26T02:16:23.546Z,9.60
2018-11-26T02:17:23.530Z,9.40
2018-11-26T02:18:23.525Z,9.80
2018-11-26T02:19:23.510Z,9.20
2018-11-26T02:20:23.496Z,9.20
2018-11-26T02:21:23.486Z,9.70
2018-11-26T02:22:23.475Z,9.50
2018-11-26T02:23:23.466Z,9.50
2018-11-26T02:24:23.456Z,9.50
2018-11-26T02:25:23.444Z,9.50
2018-11-26T02:26:23.431Z,9.40
2018-11-26T02:27:23.423Z,10.00
2018-11-26T02:28:23.410Z,9.80
2018-11-26T02:29:23.399Z,9.30
2018-11-26T02:30:23.388Z,10.10
2018-11-26T02:31:23.379Z,9.70
2018-11-26T02:32:23.367Z,9.40
2018-11-26T02:33:23.358Z,9.40
2018-11-26T02:34:23.352Z,9.50
2018-11-26T02:35:23.340Z,9.30
2018-11-26T02:36:23.325Z,9.90
2018-11-26T02:37:23.313Z,9.90
2018-11-26T02:38:23.305Z,9.80
2018-11-26T02:39:23.293Z,9.50
2018-11-26T02:40:23.282Z,9.40
2018-11-26T02:41:23.271Z,9.60
2018-11-26T02:42:23.261Z,9.60
2018-11-26T02:43:23.248Z,9.00
2018-11-26T02:44:23.240Z,9.10
2018-11-26T02:45:23.228Z,8.90
2018-11-26T02:46:23.219Z,8.90
2018-11-26T02:47:23.211Z,8.90
2018-11-26T02:48:23.200Z,9.20
2018-11-26T02:49:23.185Z,9.00
2018-11-26T02:50:23.178Z,9.80
2018-11-26T02:51:23.163Z,9.00
2018-11-26T02:52:23.157Z,8.90
2018-11-26T02:53:23.143Z,9.10
2018-11-26T02:54:23.131Z,8.90
2018-11-26T02:55:23.121Z,9.00
2018-11-26T02:56:23.110Z,9.00
2018-11-26T02:57:23.100Z,9.10
2018-11-26T02:58:23.090Z,8.90
2018-11-26T02:59:23.086Z,9.40
2018-11-26T03:00:23.070Z,8.90
2018-11-26T03:01:23.058Z,8.70
2018-11-26T03:02:23.048Z,9.20
2018-11-26T03:03:23.036Z,8.70
2018-11-26T03:04:23.025Z,8.80
2018-11-26T03:05:23.019Z,8.90
2018-11-26T03:06:23.005Z,9.40
2018-11-26T03:07:22.992Z,9.10
2018-11-26T03:08:22.982Z,9.00
2018-11-26T03:09:22.971Z,8.50
2018-11-26T03:10:22.960Z,9.00
2018-11-26T03:11:22.949Z,9.10
2018-11-26T03:12:22.940Z,9.00
2018-11-26T03:13:22.930Z,8.90
2018-11-26T03:14:22.917Z,8.50
2018-11-26T03:15:22.909Z,9.30
2018-11-26T03:16:22.902Z,9.00
2018-11-26T03:17:22.886Z,8.60
2018-11-26T03:18:22.875Z,9.30
2018-11-26T03:19:22.868Z,9.00
2018-11-26T03:20:22.855Z,8.80
2018-11-26T03:21:22.842Z,9.50
2018-11-26T03:22:22.833Z,9.00
2018-11-26T03:23:22.821Z,8.40
2018-11-26T03:24:22.814Z,9.20
2018-11-26T03:25:22.803Z,9.00
2018-11-26T03:26:22.791Z,8.80
2018-11-26T03:27:22.780Z,9.00
2018-11-26T03:28:22.774Z,8.60
2018-11-26T03:29:22.759Z,8.50
2018-11-26T03:30:22.747Z,8.50
2018-11-26T03:31:22.736Z,8.70
2018-11-26T03:32:22.725Z,9.00
2018-11-26T03:33:22.714Z,8.40
2018-11-26T03:34:22.706Z,8.80
2018-11-26T03:35:22.695Z,9.00
2018-11-26T03:36:22.687Z,8.50
2018-11-26T03:37:22.674Z,8.60
2018-11-26T03:38:22.667Z,8.70
2018-11-26T03:39:22.650Z,8.40
2018-11-26T03:40:22.639Z,8.70
2018-11-26T03:41:22.629Z,8.80
2018-11-26T03:42:22.618Z,8.60
2018-11-26T03:43:22.608Z,8.50
2018-11-26T03:44:22.600Z,8.70
2018-11-26T03:45:22.585Z,8.30
2018-11-26T03:46:22.577Z,8.50
2018-11-26T03:47:22.563Z,8.30
2018-11-26T03:48:22.555Z,8.40
2018-11-26T03:49:22.543Z,8.50
2018-11-26T03:50:22.542Z,8.90
2018-11-26T03:51:22.521Z,8.60
2018-11-26T03:52:22.516Z,8.40
2018-11-26T03:53:22.501Z,8.80
2018-11-26T03:54:22.492Z,8.60
2018-11-26T03:55:22.482Z,8.80
2018-11-26T03:56:22.469Z,8.50
2018-11-26T03:57:22.461Z,8.50
2018-11-26T03:58:22.453Z,8.00
2018-11-26T03:59:22.434Z,8.80
2018-11-26T04:00:22.426Z,8.60
2018-11-26T04:01:22.415Z,8.50
2018-11-26T04:02:22.403Z,8.30
2018-11-26T04:03:22.401Z,8.90
2018-11-26T04:04:22.381Z,8.30
2018-11-26T04:05:22.375Z,7.60
2018-11-26T04:06:22.360Z,8.30
2018-11-26T04:07:22.353Z,8.40
2018-11-26T04:08:22.339Z,8.80
2018-11-26T04:09:22.329Z,8.50
2018-11-26T04:10:22.317Z,8.70
2018-11-26T04:11:22.308Z,8.20
2018-11-26T04:12:22.300Z,8.40
2018-11-26T04:13:22.297Z,8.10
2018-11-26T04:14:22.278Z,8.40
2018-11-26T04:15:22.265Z,8.10
2018-11-26T04:16:22.254Z,8.40
2018-11-26T04:17:22.243Z,8.20
2018-11-26T04:18:22.243Z,8.00
2018-11-26T04:19:22.221Z,8.20
2018-11-26T04:20:22.212Z,7.70
2018-11-26T04:21:22.200Z,8.20
2018-11-26T04:22:22.193Z,8.20
2018-11-26T04:23:22.180Z,8.10
2018-11-26T04:24:22.172Z,8.00
2018-11-26T04:25:22.159Z,8.10
2018-11-26T04:26:22.146Z,7.90
2018-11-26T04:27:22.135Z,8.30
2018-11-26T04:28:22.125Z,7.70
2018-11-26T04:29:22.118Z,7.70
2018-11-26T04:30:22.104Z,8.80
2018-11-26T04:31:22.093Z,8.10
2018-11-26T04:32:22.084Z,8.30
2018-11-26T04:33:22.075Z,7.70
2018-11-26T04:34:22.061Z,8.30
2018-11-26T04:35:22.051Z,7.60
2018-11-26T04:36:22.044Z,7.90
2018-11-26T04:37:22.028Z,8.40
2018-11-26T04:38:22.019Z,8.00
2018-11-26T04:39:22.021Z,8.30
2018-11-26T04:40:21.998Z,7.70
2018-11-26T04:41:21.988Z,7.50
2018-11-26T04:42:21.975Z,7.80
2018-11-26T04:43:21.964Z,8.10
2018-11-26T04:44:21.957Z,7.80
2018-11-26T04:45:21.955Z,7.70
2018-11-26T04:46:21.932Z,7.80
2018-11-26T04:47:21.920Z,7.60
2018-11-26T04:48:21.910Z,8.00
2018-11-26T04:49:21.900Z,8.10
2018-11-26T04:50:21.891Z,7.90
2018-11-26T04:51:21.885Z,8.00
2018-11-26T04:52:21.870Z,7.40
2018-11-26T04:53:21.858Z,8.20
2018-11-26T04:54:21.848Z,7.90
2018-11-26T04:55:21.841Z,8.40
2018-11-26T04:56:21.824Z,7.90
2018-11-26T04:57:21.814Z,8.00
2018-11-26T04:58:21.803Z,7.50
2018-11-26T04:59:21.795Z,7.60
2018-11-26T05:00:21.782Z,7.70
2018-11-26T05:01:21.771Z,7.80
2018-11-26T05:02:21.761Z,8.20
2018-11-26T05:03:21.750Z,7.80
2018-11-26T05:04:21.739Z,7.90
2018-11-26T05:05:21.728Z,7.80
2018-11-26T05:06:21.724Z,7.80
2018-11-26T05:07:21.709Z,7.80
2018-11-26T05:08:21.697Z,7.50
2018-11-26T05:09:21.688Z,7.60
2018-11-26T05:10:21.675Z,8.10
2018-11-26T05:11:21.664Z,7.70
2018-11-26T05:12:21.657Z,7.50
2018-11-26T05:13:21.650Z,7.50
2018-11-26T05:14:21.631Z,7.60
2018-11-26T05:15:21.624Z,7.80
2018-11-26T05:16:21.610Z,7.70
2018-11-26T05:17:21.599Z,7.60
2018-11-26T05:18:21.590Z,7.60
2018-11-26T05:19:21.580Z,7.60
2018-11-26T05:20:21.575Z,7.70
2018-11-26T05:21:21.557Z,7.40
2018-11-26T05:22:21.555Z,7.10
2018-11-26T05:23:21.538Z,7.20
2018-11-26T05:24:21.525Z,7.80
2018-11-26T05:25:21.513Z,7.50
2018-11-26T05:26:21.508Z,7.30
2018-11-26T05:27:21.491Z,7.60
2018-11-26T05:28:21.487Z,7.50
2018-11-26T05:29:21.474Z,7.70
2018-11-26T05:30:21.468Z,7.60
2018-11-26T05:31:21.451Z,7.60
2018-11-26T05:32:21.449Z,7.00
2018-11-26T05:33:21.428Z,7.70
2018-11-26T05:34:21.418Z,7.30
2018-11-26T05:35:21.408Z,7.50
2018-11-26T05:36:21.396Z,7.40
2018-11-26T05:37:21.388Z,7.10
2018-11-26T05:38:21.374Z,7.40
2018-11-26T05:39:21.365Z,7.70
2018-11-26T05:40:21.380Z,7.40
2018-11-26T05:41:21.341Z,7.50
2018-11-26T05:42:28.680Z,7.70
2018-11-26T05:43:22.318Z,7.20
2018-11-26T05:44:21.310Z,7.80
2018-11-26T05:45:21.301Z,7.20
2018-11-26T05:46:21.288Z,7.40
2018-11-26T05:47:21.278Z,7.30
2018-11-26T05:48:21.269Z,7.20
2018-11-26T05:49:21.272Z,7.30
2018-11-26T05:50:21.245Z,6.90
2018-11-26T05:51:21.238Z,7.30
2018-11-26T05:52:21.224Z,7.20
2018-11-26T05:53:21.213Z,7.60
2018-11-26T05:54:21.213Z,7.40
2018-11-26T05:55:21.349Z,7.20
2018-11-26T05:56:21.182Z,6.80
2018-11-26T05:57:21.172Z,7.60
2018-11-26T05:58:21.159Z,7.60
2018-11-26T05:59:21.150Z,7.20
2018-11-26T06:00:21.141Z,6.80
2018-11-26T06:01:21.127Z,6.90
2018-11-26T06:02:21.118Z,6.70
2018-11-26T06:03:21.107Z,6.90
2018-11-26T06:04:21.096Z,7.10
2018-11-26T06:05:21.090Z,6.70
2018-11-26T06:06:21.074Z,7.30
2018-11-26T06:07:21.070Z,6.80
2018-11-26T06:08:21.055Z,7.30
2018-11-26T06:09:21.044Z,7.10
2018-11-26T06:10:21.034Z,7.00
2018-11-26T06:11:21.023Z,6.80
2018-11-26T06:12:21.028Z,6.90
2018-11-26T06:13:21.011Z,7.20
2018-11-26T06:14:20.989Z,7.10
2018-11-26T06:15:20.978Z,7.40
2018-11-26T06:16:20.968Z,6.80
2018-11-26T06:17:20.957Z,7.20
2018-11-26T06:18:20.945Z,7.10
2018-11-26T06:19:20.942Z,7.40
2018-11-26T06:20:20.925Z,7.50
2018-11-26T06:21:20.914Z,7.20
2018-11-26T06:22:20.902Z,7.50
2018-11-26T06:23:20.891Z,7.10
2018-11-26T06:24:20.882Z,7.20
2018-11-26T06:25:20.878Z,6.90
2018-11-26T06:26:20.862Z,6.90
2018-11-26T06:27:20.851Z,6.80
2018-11-26T06:28:20.838Z,7.20
2018-11-26T06:29:20.828Z,7.00
2018-11-26T06:30:20.816Z,7.00
2018-11-26T06:31:20.821Z,6.70
2018-11-26T06:32:20.796Z,6.80
2018-11-26T06:33:20.784Z,6.80
2018-11-26T06:34:20.774Z,6.50
2018-11-26T06:35:20.767Z,6.80
2018-11-26T06:36:20.754Z,6.90
2018-11-26T06:37:20.741Z,7.00
2018-11-26T06:38:20.734Z,6.80
2018-11-26T06:39:20.720Z,7.10
2018-11-26T06:40:20.721Z,7.30
2018-11-26T06:41:20.698Z,6.70
2018-11-26T06:42:20.688Z,7.00
2018-11-26T06:43:20.677Z,7.00
2018-11-26T06:44:20.666Z,6.90
2018-11-26T06:45:20.659Z,7.20
2018-11-26T06:46:20.644Z,7.30
2018-11-26T06:47:20.634Z,7.40
2018-11-26T06:48:20.623Z,6.80
2018-11-26T06:49:20.616Z,7.10
2018-11-26T06:50:20.623Z,6.60
2018-11-26T06:51:20.592Z,6.80
2018-11-26T06:52:20.580Z,7.20
2018-11-26T06:53:20.570Z,7.30
2018-11-26T06:54:20.559Z,6.90
2018-11-26T06:55:20.551Z,6.90
2018-11-26T06:56:20.540Z,7.30
2018-11-26T06:57:20.527Z,7.20
2018-11-26T06:58:20.516Z,7.40
2018-11-26T06:59:20.505Z,7.00
2018-11-26T07:00:20.501Z,7.10
2018-11-26T07:01:20.484Z,6.70
2018-11-26T07:02:20.473Z,6.80
2018-11-26T07:03:20.462Z,6.70
2018-11-26T07:04:20.451Z,7.10
2018-11-26T07:05:20.441Z,6.90
2018-11-26T07:06:20.434Z,7.30
2018-11-26T07:07:20.419Z,6.70
2018-11-26T07:08:20.408Z,7.20
2018-11-26T07:09:20.401Z,7.20
2018-11-26T07:10:20.387Z,7.20
2018-11-26T07:11:20.377Z,6.80
2018-11-26T07:12:20.380Z,6.10
2018-11-26T07:13:20.356Z,6.70
2018-11-26T07:14:20.345Z,6.70
2018-11-26T07:15:20.334Z,6.70
2018-11-26T07:16:20.327Z,6.90
2018-11-26T07:17:20.314Z,7.00
2018-11-26T07:18:20.303Z,6.90
2018-11-26T07:19:20.292Z,6.90
2018-11-26T07:20:20.281Z,7.20
2018-11-26T07:21:20.269Z,7.00
2018-11-26T07:22:20.264Z,6.50
2018-11-26T07:23:20.248Z,6.90
2018-11-26T07:24:20.238Z,6.90
2018-11-26T07:25:20.226Z,6.90
2018-11-26T07:26:20.215Z,6.80
2018-11-26T07:27:20.208Z,7.80
2018-11-26T07:28:20.196Z,6.80
2018-11-26T07:29:24.222Z,6.90
2018-11-26T07:30:20.174Z,6.80
2018-11-26T07:31:20.164Z,6.80
2018-11-26T07:32:20.151Z,6.70
2018-11-26T07:33:20.140Z,6.60
2018-11-26T07:34:20.132Z,7.00
2018-11-26T07:35:20.127Z,6.80
2018-11-26T07:36:20.112Z,7.10
2018-11-26T07:37:20.098Z,7.10
2018-11-26T07:38:20.088Z,6.90
2018-11-26T07:39:20.079Z,6.60
2018-11-26T07:40:20.071Z,6.70
2018-11-26T07:41:20.064Z,6.90
2018-11-26T07:42:20.047Z,6.60
2018-11-26T07:43:20.036Z,6.80
2018-11-26T07:44:20.023Z,6.90
2018-11-26T07:45:20.020Z,6.90
2018-11-26T07:46:20.001Z,7.30
2018-11-26T07:47:19.996Z,7.10
2018-11-26T07:48:19.981Z,6.80
2018-11-26T07:49:19.973Z,7.50
2018-11-26T07:50:19.958Z,7.20
2018-11-26T07:51:19.950Z,7.10
2018-11-26T07:52:19.937Z,6.50
2018-11-26T07:53:19.935Z,6.90
2018-11-26T07:54:19.918Z,7.00
2018-11-26T07:55:19.905Z,7.20
2018-11-26T07:56:19.894Z,6.70
2018-11-26T07:57:19.885Z,7.20
2018-11-26T07:58:19.874Z,7.10
2018-11-26T07:59:19.861Z,6.60
2018-11-26T08:00:19.900Z,7.20
2018-11-26T08:01:19.840Z,6.90
2018-11-26T08:02:19.830Z,6.70
2018-11-26T08:03:19.823Z,6.90
2018-11-26T08:04:19.814Z,6.90
2018-11-26T08:05:19.802Z,6.90
2018-11-26T08:06:19.788Z,7.10
2018-11-26T08:07:19.777Z,6.80
2018-11-26T08:08:19.765Z,6.80
2018-11-26T08:09:19.756Z,6.80
2018-11-26T08:10:19.745Z,7.00
2018-11-26T08:11:19.734Z,7.20
2018-11-26T08:12:19.723Z,6.70
2018-11-26T08:13:19.714Z,7.00
2018-11-26T08:14:19.702Z,6.60
2018-11-26T08:15:19.692Z,6.80
2018-11-26T08:16:19.683Z,6.90
2018-11-26T08:17:19.669Z,7.10
2018-11-26T08:18:19.658Z,7.20
2018-11-26T08:19:19.648Z,7.00
2018-11-26T08:20:19.640Z,6.80
2018-11-26T08:21:19.627Z,6.80
2018-11-26T08:22:19.616Z,6.60
2018-11-26T08:23:19.607Z,6.80
2018-11-26T08:24:19.594Z,6.50
2018-11-26T08:25:19.597Z,6.60
2018-11-26T08:26:19.577Z,6.70
2018-11-26T08:27:19.565Z,6.60
2018-11-26T08:28:19.554Z,6.70
2018-11-26T08:29:19.542Z,7.20
2018-11-26T08:30:19.532Z,6.90
2018-11-26T08:31:19.551Z,6.50
2018-11-26T08:32:19.509Z,6.90
2018-11-26T08:33:19.550Z,7.10
2018-11-26T08:34:19.487Z,7.10
2018-11-26T08:35:19.478Z,6.70
2018-11-26T08:36:19.466Z,6.90
2018-11-26T08:37:19.457Z,6.70
2018-11-26T08:38:19.443Z,7.20
2018-11-26T08:39:19.434Z,6.90
2018-11-26T08:40:19.425Z,6.70
2018-11-26T08:41:19.413Z,6.90
2018-11-26T08:42:19.401Z,6.60
2018-11-26T08:43:19.396Z,6.80
2018-11-26T08:44:19.379Z,6.70
2018-11-26T08:45:19.370Z,6.80
2018-11-26T08:46:19.358Z,6.40
2018-11-26T08:47:19.347Z,7.00
2018-11-26T08:48:19.336Z,7.10
2018-11-26T08:49:19.326Z,6.60
2018-11-26T08:50:19.318Z,6.40
2018-11-26T08:51:19.305Z,5.80
2018-11-26T08:52:19.294Z,7.60
2018-11-26T08:53:19.291Z,7.00
2018-11-26T08:54:19.273Z,7.10
2018-11-26T08:55:19.264Z,7.00
2018-11-26T08:56:19.252Z,6.80
2018-11-26T08:57:19.242Z,7.00
2018-11-26T08:58:19.233Z,6.80
2018-11-26T08:59:19.220Z,6.50
2018-11-26T09:00:19.209Z,6.50
2018-11-26T09:01:19.200Z,7.40
2018-11-26T09:02:19.188Z,6.70
2018-11-26T09:03:19.176Z,6.70
2018-11-26T09:04:19.165Z,6.60
2018-11-26T09:05:23.964Z,6.60
2018-11-26T09:06:20.144Z,7.10
2018-11-26T09:07:19.133Z,6.60
2018-11-26T09:08:19.121Z,6.80
2018-11-26T09:09:19.112Z,6.70
2018-11-26T09:10:19.100Z,6.30
2018-11-26T09:11:19.098Z,6.40
2018-11-26T09:12:19.079Z,6.90
2018-11-26T09:13:19.068Z,6.30
2018-11-26T09:14:19.058Z,6.90
2018-11-26T09:15:19.049Z,7.20
2018-11-26T09:16:19.038Z,6.50
2018-11-26T09:17:19.027Z,6.60
2018-11-26T09:18:19.016Z,6.60
2018-11-26T09:19:19.006Z,6.80
2018-11-26T09:20:18.995Z,6.50
2018-11-26T09:21:18.999Z,6.30
2018-11-26T09:22:18.973Z,6.40
2018-11-26T09:23:18.961Z,6.80
2018-11-26T09:24:18.955Z,6.60
2018-11-26T09:25:18.943Z,6.70
2018-11-26T09:26:18.930Z,6.30
2018-11-26T09:27:18.919Z,6.40
2018-11-26T09:28:18.908Z,6.80
2018-11-26T09:29:18.906Z,6.60
2018-11-26T09:30:18.887Z,6.60
2018-11-26T09:31:18.887Z,6.40
2018-11-26T09:32:18.866Z,6.50
2018-11-26T09:33:18.856Z,6.70
2018-11-26T09:34:18.844Z,6.70
2018-11-26T09:35:18.834Z,7.10
2018-11-26T09:36:18.826Z,6.20
2018-11-26T09:37:18.811Z,6.70
2018-11-26T09:38:18.800Z,6.70
2018-11-26T09:39:18.789Z,6.80
2018-11-26T09:40:18.781Z,6.60
2018-11-26T09:41:18.768Z,6.20
2018-11-26T09:42:18.757Z,5.80
2018-11-26T09:43:18.748Z,6.90
2018-11-26T09:44:18.737Z,6.90
2018-11-26T09:45:18.729Z,6.60
2018-11-26T09:46:18.718Z,6.00
2018-11-26T09:47:18.708Z,6.50
2018-11-26T09:48:18.694Z,6.70
2018-11-26T09:49:18.682Z,6.00
2018-11-26T09:50:18.673Z,6.50
2018-11-26T09:51:18.665Z,6.40
2018-11-26T09:52:18.651Z,6.30
2018-11-26T09:53:18.644Z,6.30
2018-11-26T09:54:25.815Z,6.50
2018-11-26T09:55:19.621Z,6.10
2018-11-26T09:56:18.609Z,6.80
2018-11-26T09:57:18.597Z,6.90
2018-11-26T09:58:18.586Z,6.10
2018-11-26T09:59:18.575Z,6.90
2018-11-26T10:00:18.566Z,7.10
2018-11-26T10:01:18.554Z,6.10
2018-11-26T10:02:18.543Z,6.50
2018-11-26T10:03:18.534Z,6.50
2018-11-26T10:04:18.522Z,6.40
2018-11-26T10:05:18.511Z,6.30
2018-11-26T10:06:18.500Z,6.50
2018-11-26T10:07:18.493Z,6.40
2018-11-26T10:08:18.480Z,6.20
2018-11-26T10:09:18.468Z,6.50
2018-11-26T10:10:18.460Z,6.10
2018-11-26T10:11:18.448Z,6.20
2018-11-26T10:12:18.436Z,6.50
2018-11-26T10:13:18.426Z,6.60
2018-11-26T10:14:18.417Z,5.80
2018-11-26T10:15:18.407Z,5.90
2018-11-26T10:16:18.392Z,6.40
2018-11-26T10:17:18.389Z,6.60
2018-11-26T10:18:18.373Z,6.50
2018-11-26T10:19:18.366Z,6.00
2018-11-26T10:20:18.352Z,6.20
2018-11-26T10:21:18.344Z,6.30
2018-11-26T10:22:18.332Z,6.10
2018-11-26T10:23:18.324Z,6.20
2018-11-26T10:24:18.307Z,6.30
2018-11-26T10:25:18.297Z,6.50
2018-11-26T10:26:18.292Z,5.80
2018-11-26T10:27:18.278Z,6.10
2018-11-26T10:28:18.264Z,6.40
2018-11-26T10:29:18.258Z,6.20
2018-11-26T10:30:18.246Z,5.90
2018-11-26T10:31:18.232Z,6.50
2018-11-26T10:32:18.225Z,6.30
2018-11-26T10:33:18.213Z,6.50
2018-11-26T10:34:18.200Z,5.90
2018-11-26T10:35:18.193Z,6.30
2018-11-26T10:36:18.183Z,6.10
2018-11-26T10:37:18.170Z,5.90
2018-11-26T10:38:18.157Z,5.80
2018-11-26T10:39:18.154Z,6.10
2018-11-26T10:40:18.136Z,6.20
2018-11-26T10:41:18.125Z,6.30
2018-11-26T10:42:18.116Z,6.00
2018-11-26T10:43:18.103Z,5.50
2018-11-26T10:44:18.097Z,6.00
2018-11-26T10:45:18.082Z,6.20
2018-11-26T10:46:18.121Z,6.40
2018-11-26T10:47:18.061Z,6.30
2018-11-26T10:48:18.050Z,6.10
2018-11-26T10:49:18.045Z,6.00
2018-11-26T10:50:18.028Z,5.90
2018-11-26T10:51:18.018Z,6.40
2018-11-26T10:52:18.009Z,5.90
2018-11-26T10:53:17.996Z,6.10
2018-11-26T10:54:17.984Z,6.30
2018-11-26T10:55:17.979Z,6.10
2018-11-26T10:56:17.964Z,6.30
2018-11-26T10:57:17.959Z,5.80
2018-11-26T10:58:17.941Z,5.90
2018-11-26T10:59:17.932Z,5.80
2018-11-26T11:00:17.920Z,6.30
2018-11-26T11:01:17.913Z,5.80
2018-11-26T11:02:17.899Z,6.40
2018-11-26T11:03:17.889Z,6.30
2018-11-26T11:04:17.879Z,6.10
2018-11-26T11:05:17.875Z,6.00
2018-11-26T11:06:17.860Z,6.30
2018-11-26T11:07:17.846Z,6.00
2018-11-26T11:08:17.835Z,5.90
2018-11-26T11:09:17.826Z,5.80
2018-11-26T11:10:17.812Z,5.50
2018-11-26T11:11:23.190Z,6.00
2018-11-26T11:12:18.794Z,5.80
2018-11-26T11:13:17.782Z,5.70
2018-11-26T11:14:17.769Z,6.00
2018-11-26T11:15:17.763Z,5.90
2018-11-26T11:16:17.749Z,5.80
2018-11-26T11:17:17.739Z,5.50
2018-11-26T11:18:17.730Z,6.10
2018-11-26T11:19:17.718Z,5.90
2018-11-26T11:20:17.707Z,5.60
2018-11-26T11:21:17.696Z,6.10
2018-11-26T11:22:17.685Z,5.70
2018-11-26T11:23:17.674Z,6.10
2018-11-26T11:24:17.665Z,6.10
2018-11-26T11:25:17.654Z,6.10
2018-11-26T11:26:17.643Z,5.70
2018-11-26T11:27:17.633Z,6.10
2018-11-26T11:28:17.621Z,5.50
2018-11-26T11:29:17.613Z,6.10
2018-11-26T11:30:17.599Z,5.80
2018-11-26T11:31:17.587Z,6.00
2018-11-26T11:32:17.578Z,6.00
2018-11-26T11:33:58.237Z,6.10
2018-11-26T11:34:58.216Z,5.60
2018-11-26T11:36:39.757Z,5.80
2018-11-26T11:37:39.737Z,5.60
2018-11-26T11:39:10.203Z,5.70
2018-11-26T11:40:10.192Z,5.70
2018-11-26T11:41:51.735Z,6.20
2018-11-26T11:42:51.713Z,5.90
2018-11-26T11:44:33.248Z,5.10
2018-11-26T11:45:33.235Z,5.60
2018-11-26T11:47:14.782Z,5.70
2018-11-26T11:48:14.759Z,6.00
2018-11-26T11:49:45.221Z,5.30
2018-11-26T11:50:45.211Z,5.40
2018-11-26T11:52:27.270Z,5.00
2018-11-26T11:53:27.231Z,5.80
2018-11-26T11:54:27.218Z,6.10
2018-11-26T11:55:27.207Z,5.70
2018-11-26T11:56:27.197Z,6.00
2018-11-26T11:57:27.187Z,5.90
2018-11-26T11:58:27.176Z,5.40
2018-11-26T11:59:27.165Z,5.90
2018-11-26T12:00:27.160Z,5.50
2018-11-26T12:01:27.144Z,5.30
2018-11-26T12:02:27.139Z,5.90
2018-11-26T12:03:27.123Z,5.40
2018-11-26T12:04:27.112Z,5.50
2018-11-26T12:05:27.100Z,5.70
2018-11-26T12:06:27.090Z,5.30
2018-11-26T12:07:27.079Z,5.50
2018-11-26T12:08:27.069Z,6.20
2018-11-26T12:09:27.058Z,5.10
2018-11-26T12:10:27.049Z,5.90
2018-11-26T12:11:27.037Z,5.60
2018-11-26T12:12:27.027Z,5.40
2018-11-26T12:13:27.017Z,5.50
2018-11-26T12:14:27.005Z,5.40
2018-11-26T12:15:26.994Z,5.30
2018-11-26T12:16:26.984Z,5.50
2018-11-26T12:17:26.974Z,5.50
2018-11-26T12:18:26.961Z,5.50
2018-11-26T12:19:26.951Z,5.40
2018-11-26T12:20:26.939Z,5.50
2018-11-26T12:21:26.929Z,5.40
2018-11-26T12:22:26.918Z,5.20
2018-11-26T12:23:26.909Z,5.60
2018-11-26T12:24:26.899Z,5.40
2018-11-26T12:25:26.887Z,5.80
2018-11-26T12:26:26.879Z,5.30
2018-11-26T12:27:26.868Z,5.60
2018-11-26T12:28:26.854Z,5.40
2018-11-26T12:29:26.843Z,5.10
2018-11-26T12:30:26.833Z,5.30
2018-11-26T12:31:26.825Z,5.80
2018-11-26T12:32:26.810Z,5.50
2018-11-26T12:33:26.801Z,5.40
2018-11-26T12:34:26.791Z,5.40
2018-11-26T12:35:26.783Z,5.30
2018-11-26T12:36:26.770Z,5.90
2018-11-26T12:37:26.758Z,5.50
2018-11-26T12:38:26.748Z,5.20
2018-11-26T12:39:26.736Z,5.10
2018-11-26T12:40:26.758Z,5.70
2018-11-26T12:41:26.713Z,5.50
2018-11-26T12:42:26.704Z,5.40
2018-11-26T12:43:26.694Z,5.20
2018-11-26T12:44:26.683Z,5.40
2018-11-26T12:45:26.675Z,5.60
2018-11-26T12:46:26.661Z,5.50
2018-11-26T12:47:26.651Z,5.60
2018-11-26T12:48:26.640Z,5.80
2018-11-26T12:49:26.630Z,5.50
2018-11-26T12:50:26.623Z,5.60
2018-11-26T12:51:26.607Z,5.30
2018-11-26T12:52:26.595Z,5.50
2018-11-26T12:53:26.587Z,5.20
2018-11-26T12:54:26.576Z,5.20
2018-11-26T12:55:26.597Z,5.30
2018-11-26T12:56:26.553Z,5.00
2018-11-26T12:57:26.542Z,5.40
2018-11-26T12:58:26.532Z,5.60
2018-11-26T12:59:26.522Z,5.10
2018-11-26T13:00:26.512Z,5.50
2018-11-26T13:01:26.909Z,5.10
2018-11-26T13:02:26.491Z,5.60
2018-11-26T13:03:26.479Z,5.10
2018-11-26T13:04:26.469Z,5.30
2018-11-26T13:05:26.458Z,5.20
2018-11-26T13:06:26.449Z,5.10
2018-11-26T13:07:26.436Z,5.30
2018-11-26T13:08:26.426Z,5.10
2018-11-26T13:09:26.414Z,5.20
2018-11-26T13:10:26.425Z,5.60
2018-11-26T13:11:26.393Z,5.00
2018-11-26T13:12:26.383Z,5.10
2018-11-26T13:13:26.371Z,5.10
2018-11-26T13:14:26.361Z,5.40
2018-11-26T13:15:26.402Z,5.50
2018-11-26T13:16:26.366Z,5.10
2018-11-26T13:17:26.333Z,5.30
2018-11-26T13:18:26.319Z,5.30
2018-11-26T13:19:26.308Z,5.30
2018-11-26T13:20:26.376Z,5.40
2018-11-26T13:21:26.285Z,5.20
2018-11-26T13:22:26.275Z,5.20
2018-11-26T13:23:26.264Z,5.60
2018-11-26T13:24:26.254Z,5.00
2018-11-26T13:25:26.245Z,5.20
2018-11-26T13:26:26.232Z,5.00
2018-11-26T13:27:26.223Z,4.80